createdAt,value
2022-11-25T00:01:07.465Z,3.30
2022-11-25T00:03:36.200Z,3.40
2022-11-25T00:06:11.825Z,3.40
2022-11-25T00:08:40.139Z,3.50
2022-11-25T00:11:08.909Z,3.50
2022-11-25T00:13:37.374Z,3.50
2022-11-25T00:16:09.035Z,3.50
2022-11-25T00:18:38.247Z,3.50
2022-11-25T00:21:08.306Z,3.40
2022-11-25T00:23:37.003Z,3.50
2022-11-25T00:26:09.506Z,3.50
2022-11-25T00:28:37.653Z,3.50
2022-11-25T00:31:08.329Z,3.60
2022-11-25T00:33:36.348Z,3.60
2022-11-25T00:36:05.141Z,3.70
2022-11-25T00:38:32.946Z,3.70
2022-11-25T00:41:18.071Z,3.80
2022-11-25T00:44:03.723Z,3.80
2022-11-25T00:46:32.764Z,3.80
2022-11-25T00:49:00.556Z,3.90
2022-11-25T00:51:28.351Z,3.80
2022-11-25T00:53:59.071Z,3.80
2022-11-25T00:56:27.495Z,3.70
2022-11-25T00:58:58.187Z,3.70
2022-11-25T01:01:26.447Z,3.70
2022-11-25T01:03:55.780Z,3.60
2022-11-25T01:06:23.924Z,3.60
2022-11-25T01:08:51.701Z,3.60
2022-11-25T01:11:21.737Z,3.50
2022-11-25T01:13:50.300Z,3.60
2022-11-25T01:16:20.313Z,3.50
2022-11-25T01:18:48.617Z,3.50
2022-11-25T01:21:19.485Z,3.50
2022-11-25T01:23:48.469Z,3.40
2022-11-25T01:26:18.711Z,3.40
2022-11-25T01:28:46.947Z,3.40
2022-11-25T01:31:16.411Z,3.40
2022-11-25T01:33:45.257Z,3.30
2022-11-25T01:36:15.334Z,3.30
2022-11-25T01:38:45.215Z,3.30
2022-11-25T01:41:15.007Z,3.30
2022-11-25T01:43:43.098Z,3.30
2022-11-25T01:46:25.251Z,3.30
2022-11-25T01:48:56.459Z,3.20
2022-11-25T01:51:28.545Z,3.20
2022-11-25T01:54:00.752Z,3.20
2022-11-25T01:56:31.998Z,3.20
2022-11-25T01:59:00.456Z,3.10
2022-11-25T02:01:28.366Z,3.10
2022-11-25T02:03:58.648Z,3.10
2022-11-25T02:06:29.318Z,3.10
2022-11-25T02:09:03.904Z,3.10
2022-11-25T02:11:32.815Z,3.10
2022-11-25T02:14:01.634Z,3.00
2022-11-25T02:16:29.488Z,3.00
2022-11-25T02:18:57.397Z,3.00
2022-11-25T02:21:31.821Z,3.00
2022-11-25T02:24:07.775Z,3.00
2022-11-25T02:26:37.081Z,3.00
2022-11-25T02:29:04.849Z,3.00
2022-11-25T02:31:32.596Z,3.00
2022-11-25T02:34:00.342Z,3.00
2022-11-25T02:36:28.092Z,3.00
2022-11-25T02:38:58.028Z,3.00
2022-11-25T02:41:31.769Z,3.00
2022-11-25T02:44:01.518Z,3.00
2022-11-25T02:46:30.299Z,3.00
2022-11-25T02:49:09.399Z,3.00
2022-11-25T02:51:38.878Z,2.90
2022-11-25T02:54:07.108Z,2.90
2022-11-25T02:56:37.004Z,2.90
2022-11-25T02:59:09.110Z,2.90
2022-11-25T03:01:38.156Z,2.90
2022-11-25T03:04:06.819Z,2.90
2022-11-25T03:06:34.817Z,2.90
2022-11-25T03:09:03.873Z,2.90
2022-11-25T03:11:49.518Z,2.90
2022-11-25T03:14:18.591Z,2.80
2022-11-25T03:16:46.575Z,2.80
2022-11-25T03:19:14.413Z,2.80
2022-11-25T03:21:42.160Z,2.80
2022-11-25T03:24:09.988Z,2.80
2022-11-25T03:26:37.748Z,2.90
2022-11-25T03:29:05.640Z,2.80
2022-11-25T03:31:34.773Z,2.90
2022-11-25T03:34:02.664Z,2.90
2022-11-25T03:36:30.439Z,2.90
2022-11-25T03:38:58.239Z,2.90
2022-11-25T03:41:26.023Z,2.90
2022-11-25T03:43:53.811Z,3.00
2022-11-25T03:46:21.688Z,3.00
2022-11-25T03:48:50.780Z,3.00
2022-11-25T03:51:18.536Z,3.00
2022-11-25T03:53:46.247Z,3.10
2022-11-25T03:56:14.369Z,3.10
2022-11-25T03:58:42.505Z,3.10
2022-11-25T04:01:10.542Z,3.20
2022-11-25T04:03:38.258Z,3.20
2022-11-25T04:06:07.541Z,3.20
2022-11-25T04:08:36.277Z,3.30
2022-11-25T04:11:04.116Z,3.30
2022-11-25T04:13:31.074Z,3.40
2022-11-25T04:15:59.073Z,3.40
2022-11-25T04:18:26.906Z,3.50
2022-11-25T04:20:54.671Z,3.50
2022-11-25T04:23:23.809Z,3.50
2022-11-25T04:25:51.954Z,3.60
2022-11-25T04:28:19.744Z,3.60
2022-11-25T04:30:47.522Z,3.60
2022-11-25T04:33:15.257Z,3.60
2022-11-25T04:35:43.102Z,3.50
2022-11-25T04:38:10.993Z,3.50
2022-11-25T04:40:40.253Z,3.50
2022-11-25T04:43:10.649Z,3.50
2022-11-25T04:46:06.375Z,3.50
2022-11-25T04:48:26.909Z,3.50
2022-11-25T04:50:54.661Z,3.60
2022-11-25T04:53:22.540Z,3.60
2022-11-25T04:55:51.623Z,3.60
2022-11-25T04:58:39.644Z,3.60
2022-11-25T05:01:06.593Z,3.60
2022-11-25T05:03:34.389Z,3.60
2022-11-25T05:06:08.317Z,3.60
2022-11-25T05:08:36.261Z,3.60
2022-11-25T05:11:05.549Z,3.60
2022-11-25T05:13:33.297Z,3.70
2022-11-25T05:16:01.332Z,3.70
2022-11-25T05:18:29.072Z,3.80
2022-11-25T05:20:56.822Z,3.80
2022-11-25T05:23:24.715Z,3.80
2022-11-25T05:25:52.453Z,3.80
2022-11-25T05:28:21.565Z,3.90
2022-11-25T05:30:54.949Z,3.90
2022-11-25T05:33:22.874Z,3.90
2022-11-25T05:35:56.249Z,4.00
2022-11-25T05:38:24.150Z,4.00
2022-11-25T05:40:52.072Z,4.00
2022-11-25T05:43:21.188Z,4.10
2022-11-25T05:45:48.922Z,4.10
2022-11-25T05:48:16.653Z,4.20
2022-11-25T05:50:44.397Z,4.20
2022-11-25T05:53:12.308Z,4.20
2022-11-25T05:55:40.213Z,4.20
2022-11-25T05:58:07.999Z,4.20
2022-11-25T06:00:37.167Z,4.30
2022-11-25T06:03:05.716Z,4.30
2022-11-25T06:05:36.279Z,4.30
2022-11-25T06:08:04.190Z,4.30
2022-11-25T06:10:31.948Z,4.30
2022-11-25T06:12:59.753Z,4.30
2022-11-25T06:15:27.588Z,4.20
2022-11-25T06:17:56.816Z,4.20
2022-11-25T06:20:24.763Z,4.20
2022-11-25T06:22:52.534Z,4.10
2022-11-25T06:25:22.993Z,4.10
2022-11-25T06:28:11.953Z,4.10
2022-11-25T06:30:38.872Z,4.10
2022-11-25T06:33:08.015Z,4.00
2022-11-25T06:35:36.462Z,4.10
2022-11-25T06:38:04.276Z,4.10
2022-11-25T06:40:32.483Z,4.00
2022-11-25T06:43:02.907Z,4.10
2022-11-25T06:45:31.017Z,4.10
2022-11-25T06:47:58.741Z,4.10
2022-11-25T06:50:27.879Z,4.10
2022-11-25T06:52:57.558Z,4.10
2022-11-25T06:55:25.367Z,4.10
2022-11-25T06:58:03.204Z,4.20
2022-11-25T07:00:41.084Z,4.20
2022-11-25T07:03:08.815Z,4.30
2022-11-25T07:05:38.056Z,4.40
2022-11-25T07:08:05.978Z,4.40
2022-11-25T07:10:35.234Z,4.50
2022-11-25T07:13:02.945Z,4.50
2022-11-25T07:15:30.881Z,4.50
2022-11-25T07:17:58.644Z,4.60
2022-11-25T07:20:27.798Z,4.60
2022-11-25T07:22:56.890Z,4.60
2022-11-25T07:25:30.479Z,4.60
2022-11-25T07:27:58.482Z,4.70
2022-11-25T07:31:22.363Z,4.70
2022-11-25T07:33:14.195Z,4.70
2022-11-25T07:35:41.978Z,4.70
2022-11-25T07:38:11.007Z,4.80
2022-11-25T07:40:38.770Z,4.80
2022-11-25T07:43:06.517Z,4.90
2022-11-25T07:45:34.278Z,4.90
2022-11-25T07:48:03.122Z,4.90
2022-11-25T07:50:30.910Z,5.00
2022-11-25T07:52:59.041Z,5.00
2022-11-25T07:55:28.138Z,5.00
2022-11-25T07:57:55.855Z,5.10
2022-11-25T08:00:23.877Z,5.10
2022-11-25T08:02:52.956Z,5.10
2022-11-25T08:05:22.063Z,5.10
2022-11-25T08:07:50.014Z,5.10
2022-11-25T08:10:17.947Z,5.20
2022-11-25T08:12:47.030Z,5.20
2022-11-25T08:15:14.792Z,5.20
2022-11-25T08:17:42.641Z,5.20
2022-11-25T08:20:10.770Z,5.20
2022-11-25T08:22:38.733Z,5.30
2022-11-25T08:25:07.229Z,5.30
2022-11-25T08:27:35.008Z,5.30
2022-11-25T08:30:04.196Z,5.30
2022-11-25T08:32:32.107Z,5.40
2022-11-25T08:35:00.375Z,5.40
2022-11-25T08:37:28.153Z,5.40
2022-11-25T08:39:56.454Z,5.40
2022-11-25T08:42:27.223Z,5.40
2022-11-25T08:44:56.616Z,5.50
2022-11-25T08:47:25.791Z,5.50
2022-11-25T08:49:54.259Z,5.50
2022-11-25T08:52:22.893Z,5.50
2022-11-25T08:54:50.622Z,5.50
2022-11-25T08:57:18.586Z,5.60
2022-11-25T08:59:46.399Z,5.60
2022-11-25T09:02:17.426Z,5.60
2022-11-25T09:04:46.621Z,5.60
2022-11-25T09:07:14.590Z,5.70
2022-11-25T09:09:42.386Z,5.60
2022-11-25T09:12:10.262Z,5.70
2022-11-25T09:14:38.140Z,5.60
2022-11-25T09:17:10.044Z,5.60
2022-11-25T09:19:37.981Z,5.70
2022-11-25T09:22:08.099Z,5.70
2022-11-25T09:24:36.122Z,5.60
2022-11-25T09:27:04.011Z,5.60
2022-11-25T09:29:31.748Z,5.60
2022-11-25T09:31:59.814Z,5.60
2022-11-25T09:34:27.568Z,5.60
2022-11-25T09:36:55.397Z,5.60
2022-11-25T09:39:30.873Z,5.60
2022-11-25T09:42:27.316Z,5.60
2022-11-25T09:45:23.978Z,5.60
2022-11-25T09:48:00.096Z,5.60
2022-11-25T09:50:41.776Z,5.60
2022-11-25T09:53:22.800Z,5.60
2022-11-25T09:56:01.311Z,5.70
2022-11-25T09:58:35.243Z,5.70
2022-11-25T10:01:06.234Z,5.70
2022-11-25T10:03:40.163Z,5.70
2022-11-25T10:06:11.657Z,5.80
2022-11-25T10:08:41.295Z,5.80
2022-11-25T10:11:22.205Z,5.80
2022-11-25T10:13:55.692Z,5.90
2022-11-25T10:16:36.189Z,5.90
2022-11-25T10:19:13.066Z,5.90
2022-11-25T10:21:41.062Z,6.00
2022-11-25T10:24:15.984Z,6.00
2022-11-25T10:26:46.748Z,6.10
2022-11-25T10:29:25.147Z,6.10
2022-11-25T10:31:57.830Z,6.20
2022-11-25T10:34:35.649Z,6.20
2022-11-25T10:37:07.739Z,6.20
2022-11-25T10:39:36.149Z,6.30
2022-11-25T10:42:08.237Z,6.30
2022-11-25T10:44:38.266Z,6.30
2022-11-25T10:47:19.970Z,6.30
2022-11-25T10:50:00.719Z,6.40
2022-11-25T10:52:31.660Z,6.40
2022-11-25T10:55:11.121Z,6.40
2022-11-25T10:57:40.402Z,6.50
2022-11-25T11:00:24.870Z,6.50
2022-11-25T11:02:52.737Z,6.50
2022-11-25T11:05:25.146Z,6.50
2022-11-25T11:08:19.796Z,6.50
2022-11-25T11:10:51.698Z,6.50
2022-11-25T11:13:26.953Z,6.50
2022-11-25T11:15:55.536Z,6.60
2022-11-25T11:18:27.507Z,6.60
2022-11-25T11:20:57.406Z,6.60
2022-11-25T11:23:26.076Z,6.60
2022-11-25T11:26:00.400Z,6.60
2022-11-25T11:28:39.515Z,6.60
2022-11-25T11:31:09.915Z,6.60
2022-11-25T11:33:42.299Z,6.60
2022-11-25T11:36:28.078Z,6.60
2022-11-25T11:39:02.212Z,6.60
2022-11-25T11:41:39.105Z,6.60
2022-11-25T11:44:22.876Z,6.60
2022-11-25T11:47:02.772Z,6.70
2022-11-25T11:50:03.470Z,6.70
2022-11-25T11:52:44.037Z,6.80
2022-11-25T11:55:25.822Z,6.80
2022-11-25T11:58:03.903Z,6.80
2022-11-25T12:00:41.838Z,6.80
2022-11-25T12:03:15.319Z,6.80
2022-11-25T12:05:43.450Z,6.80
2022-11-25T12:08:15.851Z,6.70
2022-11-25T12:10:48.426Z,6.70
2022-11-25T12:13:23.497Z,6.70
2022-11-25T12:15:57.750Z,6.70
2022-11-25T12:18:35.993Z,6.70
2022-11-25T12:21:06.058Z,6.70
2022-11-25T12:23:43.923Z,6.70
2022-11-25T12:26:16.812Z,6.80
2022-11-25T12:28:49.063Z,6.80
2022-11-25T12:31:23.297Z,6.80
2022-11-25T12:34:05.043Z,6.90
2022-11-25T12:36:36.559Z,6.90
2022-11-25T12:39:06.848Z,6.90
2022-11-25T12:41:42.653Z,7.00
2022-11-25T12:44:17.779Z,7.00
2022-11-25T12:46:48.744Z,7.00
2022-11-25T12:49:20.081Z,7.00
2022-11-25T12:52:02.759Z,7.00
2022-11-25T12:54:45.449Z,7.00
2022-11-25T12:57:53.652Z,7.00
2022-11-25T13:00:42.413Z,7.10
2022-11-25T13:03:34.811Z,7.10
2022-11-25T13:06:24.844Z,7.10
2022-11-25T13:09:00.267Z,7.10
2022-11-25T13:12:06.281Z,7.10
2022-11-25T13:14:57.350Z,7.20
2022-11-25T13:17:27.284Z,7.20
2022-11-25T13:20:33.852Z,7.20
2022-11-25T13:23:10.256Z,7.20
2022-11-25T13:25:39.833Z,7.20
2022-11-25T13:28:29.417Z,7.30
2022-11-25T13:31:17.273Z,7.30
2022-11-25T13:34:02.957Z,7.30
2022-11-25T13:36:46.660Z,7.30
2022-11-25T13:39:19.387Z,7.30
2022-11-25T13:41:49.571Z,7.40
2022-11-25T13:44:28.349Z,7.40
2022-11-25T13:46:58.246Z,7.40
2022-11-25T13:49:35.215Z,7.40
2022-11-25T13:52:07.037Z,7.40
2022-11-25T13:54:40.401Z,7.50
2022-11-25T13:57:35.942Z,7.60
2022-11-25T14:00:09.081Z,7.60
2022-11-25T14:02:49.782Z,7.70
2022-11-25T14:05:54.024Z,7.70
2022-11-25T14:08:36.328Z,7.70
2022-11-25T14:11:34.136Z,7.70
2022-11-25T14:14:16.508Z,7.70
2022-11-25T14:16:58.795Z,7.70
2022-11-25T14:19:55.147Z,7.70
2022-11-25T14:22:51.629Z,7.70
2022-11-25T14:25:23.861Z,7.70
2022-11-25T14:28:03.538Z,7.70
2022-11-25T14:30:32.396Z,7.70
2022-11-25T14:33:04.742Z,7.70
2022-11-25T14:35:44.846Z,7.70
2022-11-25T14:38:16.877Z,7.70
2022-11-25T14:40:53.061Z,7.70
2022-11-25T14:43:26.017Z,7.60
2022-11-25T14:46:12.397Z,7.60
2022-11-25T14:48:40.197Z,7.60
2022-11-25T14:51:10.170Z,7.60
2022-11-25T14:53:47.305Z,7.60
2022-11-25T14:56:18.064Z,7.60
2022-11-25T14:58:49.989Z,7.60
2022-11-25T15:01:20.662Z,7.60
2022-11-25T15:03:49.084Z,7.60
2022-11-25T15:06:19.828Z,7.60
2022-11-25T15:08:59.115Z,7.60
2022-11-25T15:11:29.770Z,7.60
2022-11-25T15:14:01.567Z,7.60
2022-11-25T15:16:34.720Z,7.60
2022-11-25T15:19:04.752Z,7.60
2022-11-25T15:21:48.394Z,7.50
2022-11-25T15:24:25.177Z,7.50
2022-11-25T15:26:53.824Z,7.50
2022-11-25T15:29:23.536Z,7.50
2022-11-25T15:31:53.484Z,7.50
2022-11-25T15:34:23.293Z,7.50
2022-11-25T15:36:54.486Z,7.50
2022-11-25T15:39:29.425Z,7.50
2022-11-25T15:42:03.670Z,7.50
2022-11-25T15:44:36.133Z,7.50
2022-11-25T15:47:06.642Z,7.50
2022-11-25T15:49:36.147Z,7.50
2022-11-25T15:52:08.909Z,7.50
2022-11-25T15:54:42.494Z,7.50
2022-11-25T15:57:18.496Z,7.50
2022-11-25T16:00:03.725Z,7.50
2022-11-25T16:02:35.933Z,7.50
2022-11-25T16:05:20.273Z,7.50
2022-11-25T16:08:02.995Z,7.50
2022-11-25T16:10:33.440Z,7.50
2022-11-25T16:13:28.957Z,7.50
2022-11-25T16:16:18.058Z,7.50
2022-11-25T16:19:10.308Z,7.50
2022-11-25T16:21:52.907Z,7.50
2022-11-25T16:24:47.024Z,7.50
2022-11-25T16:27:21.066Z,7.50
2022-11-25T16:29:54.597Z,7.50
2022-11-25T16:32:25.671Z,7.50
2022-11-25T16:34:56.076Z,7.50
2022-11-25T16:37:24.024Z,7.50
2022-11-25T16:39:52.521Z,7.50
2022-11-25T16:42:22.328Z,7.50
2022-11-25T16:44:52.283Z,7.60
2022-11-25T16:47:21.556Z,7.60
2022-11-25T16:49:50.863Z,7.60
2022-11-25T16:52:18.712Z,7.50
2022-11-25T16:54:47.408Z,7.60
2022-11-25T16:57:19.271Z,7.60
2022-11-25T16:59:54.368Z,7.60
2022-11-25T17:02:25.300Z,7.60
2022-11-25T17:04:54.784Z,7.60
2022-11-25T17:07:38.436Z,7.60
2022-11-25T17:10:07.781Z,7.60
2022-11-25T17:12:36.439Z,7.60
2022-11-25T17:15:07.188Z,7.60
2022-11-25T17:17:35.947Z,7.60
2022-11-25T17:20:06.041Z,7.60
2022-11-25T17:22:39.062Z,7.60
2022-11-25T17:25:07.868Z,7.60
2022-11-25T17:27:35.819Z,7.60
2022-11-25T17:30:06.516Z,7.70
2022-11-25T17:32:35.035Z,7.70
2022-11-25T17:35:02.899Z,7.70
2022-11-25T17:37:32.922Z,7.70
2022-11-25T17:40:01.664Z,7.70
2022-11-25T17:42:32.147Z,7.70
2022-11-25T17:45:01.135Z,7.70
2022-11-25T17:47:28.989Z,7.70
2022-11-25T17:49:57.969Z,7.70
2022-11-25T17:52:25.755Z,7.80
2022-11-25T17:54:55.061Z,7.80
2022-11-25T17:57:25.502Z,7.80
2022-11-25T17:59:53.331Z,7.80
2022-11-25T18:02:23.323Z,7.80
2022-11-25T18:04:52.313Z,7.80
2022-11-25T18:07:20.360Z,7.80
2022-11-25T18:09:48.394Z,7.80
2022-11-25T18:12:23.187Z,7.80
2022-11-25T18:14:51.059Z,7.80
2022-11-25T18:17:19.846Z,7.70
2022-11-25T18:19:54.563Z,7.80
2022-11-25T18:22:24.658Z,7.70
2022-11-25T18:24:56.125Z,7.70
2022-11-25T18:27:29.073Z,7.70
2022-11-25T18:29:57.817Z,7.70
2022-11-25T18:32:26.078Z,7.70
2022-11-25T18:34:54.052Z,7.70
2022-11-25T18:37:22.058Z,7.70
2022-11-25T18:39:52.472Z,7.70
2022-11-25T18:42:26.636Z,7.80
2022-11-25T18:44:56.026Z,7.80
2022-11-25T18:47:24.279Z,7.80
2022-11-25T18:49:56.405Z,7.80
2022-11-25T18:52:24.609Z,7.80
2022-11-25T18:54:52.371Z,7.80
2022-11-25T18:57:20.218Z,7.80
2022-11-25T19:00:10.198Z,7.80
2022-11-25T19:02:37.706Z,7.80
2022-11-25T19:05:16.390Z,7.80
2022-11-25T19:07:44.463Z,7.80
2022-11-25T19:10:13.893Z,7.80
2022-11-25T19:12:44.452Z,7.80
2022-11-25T19:15:17.398Z,7.80
2022-11-25T19:17:47.500Z,7.80
2022-11-25T19:20:16.341Z,7.80
2022-11-25T19:22:44.101Z,7.80
2022-11-25T19:25:12.493Z,7.90
2022-11-25T19:27:43.640Z,7.90
2022-11-25T19:30:18.025Z,7.90
2022-11-25T19:32:48.084Z,7.90
2022-11-25T19:35:17.999Z,7.90
2022-11-25T19:37:46.319Z,7.90
2022-11-25T19:40:16.050Z,7.90
2022-11-25T19:42:46.099Z,7.90
2022-11-25T19:45:15.749Z,7.90
2022-11-25T19:47:46.442Z,8.00
2022-11-25T19:50:18.541Z,8.00
2022-11-25T19:52:46.744Z,7.90
2022-11-25T19:55:16.895Z,8.00
2022-11-25T19:57:44.946Z,8.00
2022-11-25T20:00:14.639Z,8.00
2022-11-25T20:02:44.639Z,8.00
2022-11-25T20:05:17.880Z,8.00
2022-11-25T20:07:46.173Z,8.00
2022-11-25T20:10:19.215Z,8.00
2022-11-25T20:12:48.252Z,8.00
2022-11-25T20:15:16.430Z,8.00
2022-11-25T20:17:47.947Z,8.00
2022-11-25T20:20:18.483Z,8.00
2022-11-25T20:22:56.990Z,8.00
2022-11-25T20:25:25.068Z,8.00
2022-11-25T20:27:53.050Z,8.00
2022-11-25T20:30:22.629Z,8.00
2022-11-25T20:32:52.333Z,8.10
2022-11-25T20:35:20.879Z,8.10
2022-11-25T20:37:53.884Z,8.10
2022-11-25T20:40:24.412Z,8.10
2022-11-25T20:42:53.109Z,8.10
2022-11-25T20:45:23.558Z,8.10
2022-11-25T20:47:53.103Z,8.10
2022-11-25T20:50:22.481Z,8.10
2022-11-25T20:52:51.006Z,8.10
2022-11-25T20:55:21.333Z,8.10
2022-11-25T20:57:54.937Z,8.10
2022-11-25T21:00:24.818Z,8.10
2022-11-25T21:02:54.993Z,8.10
2022-11-25T21:05:22.982Z,8.10
2022-11-25T21:07:51.749Z,8.20
2022-11-25T21:10:26.366Z,8.20
2022-11-25T21:12:54.493Z,8.20
2022-11-25T21:15:23.813Z,8.20
2022-11-25T21:17:53.211Z,8.20
2022-11-25T21:20:21.334Z,8.20
2022-11-25T21:22:54.970Z,8.20
2022-11-25T21:25:23.813Z,8.20
2022-11-25T21:27:52.629Z,8.20
2022-11-25T21:30:21.983Z,8.20
2022-11-25T21:32:51.166Z,8.20
2022-11-25T21:35:20.240Z,8.20
2022-11-25T21:37:48.150Z,8.20
2022-11-25T21:40:32.112Z,8.20
2022-11-25T21:43:00.047Z,8.20
2022-11-25T21:45:27.848Z,8.20
2022-11-25T21:47:55.577Z,8.20
2022-11-25T21:50:29.222Z,8.20
2022-11-25T21:52:57.282Z,8.20
2022-11-25T21:55:25.514Z,8.20
2022-11-25T21:57:53.290Z,8.20
2022-11-25T22:00:25.299Z,8.20
2022-11-25T22:02:53.608Z,8.10
2022-11-25T22:05:25.468Z,8.10
2022-11-25T22:07:54.708Z,8.10
2022-11-25T22:10:22.986Z,8.00
2022-11-25T22:12:51.612Z,8.00
2022-11-25T22:15:21.836Z,7.90
2022-11-25T22:17:50.616Z,7.90
2022-11-25T22:20:29.320Z,7.80
2022-11-25T22:22:57.258Z,7.70
2022-11-25T22:25:27.061Z,7.60
2022-11-25T22:27:55.091Z,7.60
2022-11-25T22:30:24.140Z,7.50
2022-11-25T22:32:59.614Z,7.50
2022-11-25T22:35:29.195Z,7.40
2022-11-25T22:37:56.906Z,7.40
2022-11-25T22:40:25.112Z,7.30
2022-11-25T22:42:53.932Z,7.30
2022-11-25T22:45:27.625Z,7.20
2022-11-25T22:47:55.842Z,7.20
2022-11-25T22:50:26.711Z,7.10
2022-11-25T22:52:57.173Z,7.10
2022-11-25T22:55:27.100Z,7.00
2022-11-25T22:57:57.095Z,7.00
2022-11-25T23:00:27.665Z,7.00
2022-11-25T23:02:57.769Z,7.00
2022-11-25T23:05:32.282Z,6.90
2022-11-25T23:08:02.684Z,6.80
2022-11-25T23:10:32.243Z,6.80
2022-11-25T23:13:02.147Z,6.80
2022-11-25T23:15:33.662Z,6.70
2022-11-25T23:18:08.434Z,6.70
2022-11-25T23:20:38.635Z,6.60
2022-11-25T23:23:14.477Z,6.60
2022-11-25T23:25:42.665Z,6.60
2022-11-25T23:28:10.545Z,6.50
2022-11-25T23:30:39.171Z,6.50
2022-11-25T23:33:15.275Z,6.50
2022-11-25T23:35:43.125Z,6.50
2022-11-25T23:38:19.403Z,6.50
2022-11-25T23:40:47.212Z,6.50
2022-11-25T23:43:16.338Z,6.50
2022-11-25T23:45:49.524Z,6.50
2022-11-25T23:48:18.750Z,6.50
2022-11-25T23:50:47.584Z,6.40
2022-11-25T23:53:23.806Z,6.40
2022-11-25T23:55:51.971Z,6.40
2022-11-25T23:58:21.601Z,6.40
